KMSY

Louis Armstrong New Orleans International Airport

New Orleans, Louisiana, USA
KMSY 182100Z 1821/1924 19010KT P6SM VCSH BKN025 BKN070 TEMPO 1821/1824 2SM +TSRA OVC025CB FM190000 27006KT P6SM VCTS SCT030CB BKN100 FM190300 27004KT P6SM BKN100 FM191400 27007KT P6SM VCTS SCT030CB BKN100
Issued Valid From Valid To
Jul-18 @ 21:00 UTC
(2 hours ago)
Jul-18 @ 21:00 UTC
(2 hours ago)
Jul-20 @ 00:00 UTC
(-1 days ago)
Jul-18 @ 21:00 to Jul-19 @ 00:00
KMSY 182100Z 1821/1924 19010KT P6SM VCSH BKN025 BKN070
Wind Visibility Clouds
190° at 10 knots Greater than 6 miles
  • Broken at 2,500' AGL
  • Broken at 7,000' AGL
Temporary Jul-18 @ 21:00 to Jul-19 @ 00:00
TEMPO 1821/1824 2SM +TSRA OVC025CB
Visibility Clouds Conditions
2 miles
  • Overcast at 2,500' AGL
  • Heavy Thunderstorm
  • Heavy Rain
From Jul-19 @ 00:00 to Jul-19 @ 03:00
FM190000 27006KT P6SM VCTS SCT030CB BKN100
Wind Visibility Clouds Conditions
270° at 6 knots Greater than 6 miles
  • Scattered at 3,000' AGL
  • Broken at 10,000' AGL
  • Area Thunderstorm
From Jul-19 @ 03:00 to Jul-19 @ 14:00
FM190300 27004KT P6SM BKN100
Wind Visibility Clouds
270° at 4 knots Greater than 6 miles
  • Broken at 10,000' AGL
From Jul-19 @ 14:00 to Jul-20 @ 00:00
FM191400 27007KT P6SM VCTS SCT030CB BKN100
Wind Visibility Clouds Conditions
270° at 7 knots Greater than 6 miles
  • Scattered at 3,000' AGL
  • Broken at 10,000' AGL
  • Area Thunderstorm
KMSY 182100Z 1821/1924 19010KT P6SM VCSH BKN025 BKN070 TEMPO 1821/1824 2SM +TSRA OVC025CB FM190000 27006KT P6SM VCTS SCT030CB BKN100 FM190300 27004KT P6SM BKN100 FM191400 27007KT P6SM VCTS SCT030CB BKN100
Issued Jul-18 @ 21:00 UTC
(2 hours ago)
Valid From Jul-18 @ 21:00 UTC
(2 hours ago)
Valid To Jul-20 @ 00:00 UTC
(-1 days ago)
Jul-18 @ 21:00 - Jul-19 @ 00:00
Wind Visibility
190° at 10 knots Greater than 6 miles
Clouds
  • Broken at 2,500' AGL
  • Broken at 7,000' AGL
Temporary Jul-18 @ 21:00 - Jul-19 @ 00:00
Clouds
  • Overcast at 2,500' AGL
Conditions
  • Heavy Thunderstorm
  • Heavy Rain
From Jul-19 @ 00:00 - Jul-19 @ 03:00
Wind Visibility
270° at 6 knots Greater than 6 miles
Clouds
  • Scattered at 3,000' AGL
  • Broken at 10,000' AGL
Conditions
  • Area Thunderstorm
From Jul-19 @ 03:00 - Jul-19 @ 14:00
Wind Visibility
270° at 4 knots Greater than 6 miles
Clouds
  • Broken at 10,000' AGL
From Jul-19 @ 14:00 - Jul-20 @ 00:00
Wind Visibility
270° at 7 knots Greater than 6 miles
Clouds
  • Scattered at 3,000' AGL
  • Broken at 10,000' AGL
Conditions
  • Area Thunderstorm